sensor_id;sensor_type;location;lat;lon;timestamp;P1;durP1;ratioP1;P2;durP2;ratioP2
5937;SDS011;2994;51.220;4.412;2023-03-20T00:00:26;14.90;;;10.33;;
5937;SDS011;2994;51.220;4.412;2023-03-20T00:02:52;12.90;;;9.87;;
5937;SDS011;2994;51.220;4.412;2023-03-20T00:05:19;11.50;;;9.00;;
5937;SDS011;2994;51.220;4.412;2023-03-20T00:07:46;13.43;;;9.77;;
5937;SDS011;2994;51.220;4.412;2023-03-20T00:10:13;12.83;;;9.70;;
5937;SDS011;2994;51.220;4.412;2023-03-20T00:12:39;12.60;;;8.83;;
5937;SDS011;2994;51.220;4.412;2023-03-20T00:15:06;13.10;;;8.50;;
5937;SDS011;2994;51.220;4.412;2023-03-20T00:17:47;10.30;;;8.80;;
5937;SDS011;2994;51.220;4.412;2023-03-20T00:20:16;11.63;;;9.43;;
5937;SDS011;2994;51.220;4.412;2023-03-20T00:22:42;13.50;;;9.53;;
5937;SDS011;2994;51.220;4.412;2023-03-20T00:25:14;14.17;;;8.50;;
5937;SDS011;2994;51.220;4.412;2023-03-20T00:27:42;12.50;;;9.70;;
5937;SDS011;2994;51.220;4.412;2023-03-20T00:30:15;12.67;;;8.47;;
5937;SDS011;2994;51.220;4.412;2023-03-20T00:32:48;13.37;;;9.30;;
5937;SDS011;2994;51.220;4.412;2023-03-20T00:35:28;10.17;;;8.60;;
5937;SDS011;2994;51.220;4.412;2023-03-20T00:37:55;12.27;;;9.30;;
5937;SDS011;2994;51.220;4.412;2023-03-20T00:40:23;15.53;;;9.07;;
5937;SDS011;2994;51.220;4.412;2023-03-20T00:42:55;13.63;;;9.60;;
5937;SDS011;2994;51.220;4.412;2023-03-20T00:45:24;14.63;;;10.37;;
5937;SDS011;2994;51.220;4.412;2023-03-20T00:47:50;12.03;;;9.23;;
5937;SDS011;2994;51.220;4.412;2023-03-20T00:50:17;14.60;;;10.63;;
5937;SDS011;2994;51.220;4.412;2023-03-20T00:52:47;13.00;;;10.50;;
5937;SDS011;2994;51.220;4.412;2023-03-20T00:55:13;10.50;;;8.10;;
5937;SDS011;2994;51.220;4.412;2023-03-20T00:57:41;10.43;;;8.77;;
5937;SDS011;2994;51.220;4.412;2023-03-20T01:00:18;12.80;;;9.43;;
5937;SDS011;2994;51.220;4.412;2023-03-20T01:02:51;13.47;;;9.40;;
5937;SDS011;2994;51.220;4.412;2023-03-20T01:05:19;10.37;;;9.03;;
5937;SDS011;2994;51.220;4.412;2023-03-20T01:07:45;12.13;;;9.00;;
5937;SDS011;2994;51.220;4.412;2023-03-20T01:10:11;13.60;;;9.37;;
5937;SDS011;2994;51.220;4.412;2023-03-20T01:12:38;12.83;;;9.80;;
5937;SDS011;2994;51.220;4.412;2023-03-20T01:15:09;12.00;;;9.30;;
5937;SDS011;2994;51.220;4.412;2023-03-20T01:17:41;12.50;;;9.20;;
5937;SDS011;2994;51.220;4.412;2023-03-20T01:20:14;12.80;;;9.90;;
5937;SDS011;2994;51.220;4.412;2023-03-20T01:22:45;13.03;;;9.50;;
5937;SDS011;2994;51.220;4.412;2023-03-20T01:25:11;14.33;;;9.70;;
5937;SDS011;2994;51.220;4.412;2023-03-20T01:27:36;11.43;;;8.77;;
5937;SDS011;2994;51.220;4.412;2023-03-20T01:30:02;12.67;;;8.97;;
5937;SDS011;2994;51.220;4.412;2023-03-20T01:32:30;14.67;;;9.70;;
5937;SDS011;2994;51.220;4.412;2023-03-20T01:34:56;10.60;;;8.13;;
5937;SDS011;2994;51.220;4.412;2023-03-20T01:37:23;14.10;;;8.87;;
5937;SDS011;2994;51.220;4.412;2023-03-20T01:39:50;12.90;;;9.47;;
5937;SDS011;2994;51.220;4.412;2023-03-20T01:42:16;12.27;;;9.00;;
5937;SDS011;2994;51.220;4.412;2023-03-20T01:44:42;11.43;;;8.73;;
5937;SDS011;2994;51.220;4.412;2023-03-20T01:47:14;10.73;;;8.33;;
5937;SDS011;2994;51.220;4.412;2023-03-20T01:52:48;11.10;;;8.10;;
5937;SDS011;2994;51.220;4.412;2023-03-20T01:55:17;12.80;;;8.13;;
5937;SDS011;2994;51.220;4.412;2023-03-20T01:57:45;9.80;;;8.80;;
5937;SDS011;2994;51.220;4.412;2023-03-20T02:00:12;13.47;;;9.30;;
5937;SDS011;2994;51.220;4.412;2023-03-20T02:02:40;9.60;;;7.80;;
5937;SDS011;2994;51.220;4.412;2023-03-20T02:05:09;10.63;;;8.83;;
5937;SDS011;2994;51.220;4.412;2023-03-20T02:07:37;12.30;;;8.83;;
5937;SDS011;2994;51.220;4.412;2023-03-20T02:10:04;12.13;;;8.20;;
5937;SDS011;2994;51.220;4.412;2023-03-20T02:12:33;9.40;;;8.33;;
5937;SDS011;2994;51.220;4.412;2023-03-20T02:15:00;10.20;;;7.77;;
5937;SDS011;2994;51.220;4.412;2023-03-20T02:17:27;11.00;;;8.20;;
5937;SDS011;2994;51.220;4.412;2023-03-20T02:26:02;11.77;;;8.40;;
5937;SDS011;2994;51.220;4.412;2023-03-20T02:47:29;17.93;;;8.87;;
5937;SDS011;2994;51.220;4.412;2023-03-20T02:50:12;15.07;;;8.97;;
5937;SDS011;2994;51.220;4.412;2023-03-20T02:58:03;13.90;;;10.00;;
5937;SDS011;2994;51.220;4.412;2023-03-20T03:00:59;11.60;;;9.10;;
5937;SDS011;2994;51.220;4.412;2023-03-20T03:03:44;12.97;;;9.77;;
5937;SDS011;2994;51.220;4.412;2023-03-20T03:06:21;17.00;;;8.93;;
5937;SDS011;2994;51.220;4.412;2023-03-20T03:09:10;12.83;;;9.90;;
5937;SDS011;2994;51.220;4.412;2023-03-20T03:11:42;15.60;;;9.90;;
5937;SDS011;2994;51.220;4.412;2023-03-20T03:14:20;12.17;;;8.23;;
5937;SDS011;2994;51.220;4.412;2023-03-20T03:17:07;15.13;;;10.37;;
5937;SDS011;2994;51.220;4.412;2023-03-20T03:19:36;13.30;;;10.17;;
5937;SDS011;2994;51.220;4.412;2023-03-20T03:22:03;13.83;;;10.73;;
5937;SDS011;2994;51.220;4.412;2023-03-20T03:24:30;12.83;;;9.63;;
5937;SDS011;2994;51.220;4.412;2023-03-20T03:27:00;13.23;;;8.07;;
5937;SDS011;2994;51.220;4.412;2023-03-20T03:29:32;12.27;;;9.07;;
5937;SDS011;2994;51.220;4.412;2023-03-20T03:32:01;11.80;;;8.47;;
5937;SDS011;2994;51.220;4.412;2023-03-20T03:34:29;12.23;;;9.47;;
5937;SDS011;2994;51.220;4.412;2023-03-20T03:39:35;13.63;;;9.13;;
5937;SDS011;2994;51.220;4.412;2023-03-20T03:42:07;12.37;;;9.60;;
5937;SDS011;2994;51.220;4.412;2023-03-20T03:44:55;15.97;;;10.43;;
5937;SDS011;2994;51.220;4.412;2023-03-20T03:52:53;12.90;;;8.70;;
5937;SDS011;2994;51.220;4.412;2023-03-20T03:55:24;11.47;;;8.87;;
5937;SDS011;2994;51.220;4.412;2023-03-20T03:57:59;14.33;;;9.57;;
5937;SDS011;2994;51.220;4.412;2023-03-20T04:00:40;13.33;;;9.33;;
5937;SDS011;2994;51.220;4.412;2023-03-20T04:03:08;11.43;;;9.30;;
5937;SDS011;2994;51.220;4.412;2023-03-20T04:05:35;12.40;;;8.70;;
5937;SDS011;2994;51.220;4.412;2023-03-20T04:08:05;13.30;;;8.00;;
5937;SDS011;2994;51.220;4.412;2023-03-20T04:10:31;13.90;;;8.80;;
5937;SDS011;2994;51.220;4.412;2023-03-20T04:12:57;11.97;;;9.23;;
5937;SDS011;2994;51.220;4.412;2023-03-20T04:15:22;12.63;;;9.50;;
5937;SDS011;2994;51.220;4.412;2023-03-20T04:17:48;10.83;;;8.27;;
5937;SDS011;2994;51.220;4.412;2023-03-20T04:20:14;14.70;;;8.83;;
5937;SDS011;2994;51.220;4.412;2023-03-20T04:22:40;13.77;;;9.73;;
5937;SDS011;2994;51.220;4.412;2023-03-20T04:25:06;12.63;;;7.83;;
5937;SDS011;2994;51.220;4.412;2023-03-20T04:27:34;18.37;;;8.50;;
5937;SDS011;2994;51.220;4.412;2023-03-20T04:29:59;15.03;;;8.73;;
5937;SDS011;2994;51.220;4.412;2023-03-20T04:32:25;13.80;;;9.60;;
5937;SDS011;2994;51.220;4.412;2023-03-20T04:34:51;12.43;;;8.70;;
5937;SDS011;2994;51.220;4.412;2023-03-20T04:37:16;15.80;;;9.13;;
5937;SDS011;2994;51.220;4.412;2023-03-20T04:39:42;12.60;;;9.07;;
5937;SDS011;2994;51.220;4.412;2023-03-20T04:42:08;11.90;;;8.10;;
5937;SDS011;2994;51.220;4.412;2023-03-20T04:44:35;10.40;;;8.20;;
5937;SDS011;2994;51.220;4.412;2023-03-20T04:47:01;14.27;;;9.83;;
5937;SDS011;2994;51.220;4.412;2023-03-20T04:49:26;15.80;;;9.23;;
5937;SDS011;2994;51.220;4.412;2023-03-20T04:51:52;13.70;;;8.93;;
5937;SDS011;2994;51.220;4.412;2023-03-20T04:54:18;12.77;;;7.60;;
5937;SDS011;2994;51.220;4.412;2023-03-20T04:56:44;13.63;;;8.17;;
5937;SDS011;2994;51.220;4.412;2023-03-20T04:59:10;15.10;;;8.83;;
5937;SDS011;2994;51.220;4.412;2023-03-20T05:01:35;13.70;;;8.00;;
5937;SDS011;2994;51.220;4.412;2023-03-20T05:04:00;15.77;;;8.30;;
5937;SDS011;2994;51.220;4.412;2023-03-20T05:06:26;13.50;;;8.43;;
5937;SDS011;2994;51.220;4.412;2023-03-20T05:08:52;16.70;;;9.37;;
5937;SDS011;2994;51.220;4.412;2023-03-20T05:11:18;10.70;;;7.90;;
5937;SDS011;2994;51.220;4.412;2023-03-20T05:13:43;14.10;;;7.40;;
5937;SDS011;2994;51.220;4.412;2023-03-20T05:16:09;14.17;;;8.17;;
5937;SDS011;2994;51.220;4.412;2023-03-20T05:18:34;12.10;;;7.87;;
5937;SDS011;2994;51.220;4.412;2023-03-20T05:21:00;11.90;;;7.47;;
5937;SDS011;2994;51.220;4.412;2023-03-20T05:23:26;13.87;;;7.90;;
5937;SDS011;2994;51.220;4.412;2023-03-20T05:25:52;15.27;;;7.07;;
5937;SDS011;2994;51.220;4.412;2023-03-20T05:28:17;11.07;;;7.60;;
5937;SDS011;2994;51.220;4.412;2023-03-20T05:30:43;13.07;;;7.60;;
5937;SDS011;2994;51.220;4.412;2023-03-20T05:33:08;13.80;;;8.60;;
5937;SDS011;2994;51.220;4.412;2023-03-20T05:35:33;9.03;;;7.00;;
5937;SDS011;2994;51.220;4.412;2023-03-20T05:37:59;11.50;;;7.37;;
5937;SDS011;2994;51.220;4.412;2023-03-20T05:40:24;12.20;;;7.40;;
5937;SDS011;2994;51.220;4.412;2023-03-20T05:42:50;9.80;;;8.40;;
5937;SDS011;2994;51.220;4.412;2023-03-20T05:45:16;12.57;;;7.67;;
5937;SDS011;2994;51.220;4.412;2023-03-20T05:47:42;12.30;;;8.53;;
5937;SDS011;2994;51.220;4.412;2023-03-20T05:50:08;12.37;;;7.80;;
5937;SDS011;2994;51.220;4.412;2023-03-20T05:52:35;12.67;;;8.10;;
5937;SDS011;2994;51.220;4.412;2023-03-20T05:55:00;10.43;;;7.60;;
5937;SDS011;2994;51.220;4.412;2023-03-20T05:57:25;10.17;;;7.13;;
5937;SDS011;2994;51.220;4.412;2023-03-20T05:59:51;10.20;;;7.67;;
5937;SDS011;2994;51.220;4.412;2023-03-20T06:02:17;13.83;;;8.17;;
5937;SDS011;2994;51.220;4.412;2023-03-20T06:04:42;8.93;;;7.00;;
5937;SDS011;2994;51.220;4.412;2023-03-20T06:07:08;11.93;;;7.60;;
5937;SDS011;2994;51.220;4.412;2023-03-20T06:09:33;11.50;;;7.50;;
5937;SDS011;2994;51.220;4.412;2023-03-20T06:11:59;10.57;;;7.73;;
5937;SDS011;2994;51.220;4.412;2023-03-20T06:14:27;14.30;;;8.23;;
5937;SDS011;2994;51.220;4.412;2023-03-20T06:16:53;15.23;;;7.63;;
5937;SDS011;2994;51.220;4.412;2023-03-20T06:19:19;12.47;;;7.57;;
5937;SDS011;2994;51.220;4.412;2023-03-20T06:21:45;10.50;;;8.10;;
5937;SDS011;2994;51.220;4.412;2023-03-20T06:24:11;10.67;;;6.63;;
5937;SDS011;2994;51.220;4.412;2023-03-20T06:26:39;13.97;;;8.30;;
5937;SDS011;2994;51.220;4.412;2023-03-20T06:29:05;10.33;;;7.10;;
5937;SDS011;2994;51.220;4.412;2023-03-20T06:31:31;10.37;;;7.03;;
5937;SDS011;2994;51.220;4.412;2023-03-20T06:33:56;9.87;;;7.03;;
5937;SDS011;2994;51.220;4.412;2023-03-20T06:36:22;11.13;;;7.93;;
5937;SDS011;2994;51.220;4.412;2023-03-20T06:38:47;12.73;;;7.90;;
5937;SDS011;2994;51.220;4.412;2023-03-20T06:41:13;9.20;;;6.77;;
5937;SDS011;2994;51.220;4.412;2023-03-20T06:43:38;9.17;;;6.30;;
5937;SDS011;2994;51.220;4.412;2023-03-20T06:46:04;20.13;;;9.60;;
5937;SDS011;2994;51.220;4.412;2023-03-20T06:48:30;10.83;;;7.47;;
5937;SDS011;2994;51.220;4.412;2023-03-20T06:50:56;12.03;;;7.60;;
5937;SDS011;2994;51.220;4.412;2023-03-20T06:53:22;10.43;;;6.73;;
5937;SDS011;2994;51.220;4.412;2023-03-20T06:55:48;8.83;;;6.73;;
5937;SDS011;2994;51.220;4.412;2023-03-20T06:58:14;12.20;;;8.37;;
5937;SDS011;2994;51.220;4.412;2023-03-20T07:00:40;11.90;;;7.83;;
5937;SDS011;2994;51.220;4.412;2023-03-20T07:03:06;8.17;;;6.93;;
5937;SDS011;2994;51.220;4.412;2023-03-20T07:05:32;15.03;;;7.83;;
5937;SDS011;2994;51.220;4.412;2023-03-20T07:07:58;10.07;;;7.67;;
5937;SDS011;2994;51.220;4.412;2023-03-20T07:10:23;12.23;;;7.63;;
5937;SDS011;2994;51.220;4.412;2023-03-20T07:12:49;16.40;;;8.67;;
5937;SDS011;2994;51.220;4.412;2023-03-20T07:15:15;16.60;;;7.50;;
5937;SDS011;2994;51.220;4.412;2023-03-20T07:17:41;10.17;;;7.53;;
5937;SDS011;2994;51.220;4.412;2023-03-20T07:20:10;11.47;;;7.13;;
5937;SDS011;2994;51.220;4.412;2023-03-20T07:22:36;12.10;;;8.07;;
5937;SDS011;2994;51.220;4.412;2023-03-20T07:25:03;9.00;;;8.10;;
5937;SDS011;2994;51.220;4.412;2023-03-20T07:27:29;10.33;;;7.27;;
5937;SDS011;2994;51.220;4.412;2023-03-20T07:29:55;10.43;;;6.97;;
5937;SDS011;2994;51.220;4.412;2023-03-20T07:32:20;11.40;;;6.90;;
5937;SDS011;2994;51.220;4.412;2023-03-20T07:34:46;17.20;;;7.30;;
5937;SDS011;2994;51.220;4.412;2023-03-20T07:37:13;10.60;;;7.30;;
5937;SDS011;2994;51.220;4.412;2023-03-20T07:39:39;10.20;;;5.97;;
5937;SDS011;2994;51.220;4.412;2023-03-20T07:42:04;12.70;;;6.80;;
5937;SDS011;2994;51.220;4.412;2023-03-20T07:44:33;11.80;;;7.10;;
5937;SDS011;2994;51.220;4.412;2023-03-20T07:46:59;13.60;;;7.10;;
5937;SDS011;2994;51.220;4.412;2023-03-20T07:49:27;11.60;;;7.60;;
5937;SDS011;2994;51.220;4.412;2023-03-20T07:51:52;11.57;;;6.63;;
5937;SDS011;2994;51.220;4.412;2023-03-20T07:54:18;9.77;;;6.50;;
5937;SDS011;2994;51.220;4.412;2023-03-20T07:56:44;13.40;;;9.63;;
5937;SDS011;2994;51.220;4.412;2023-03-20T07:59:10;20.57;;;12.40;;
5937;SDS011;2994;51.220;4.412;2023-03-20T08:01:37;14.63;;;10.00;;
5937;SDS011;2994;51.220;4.412;2023-03-20T08:04:02;9.67;;;7.93;;
5937;SDS011;2994;51.220;4.412;2023-03-20T08:06:28;12.50;;;6.90;;
5937;SDS011;2994;51.220;4.412;2023-03-20T08:08:53;14.90;;;6.93;;
5937;SDS011;2994;51.220;4.412;2023-03-20T08:11:19;11.97;;;6.97;;
5937;SDS011;2994;51.220;4.412;2023-03-20T08:13:45;7.80;;;5.60;;
5937;SDS011;2994;51.220;4.412;2023-03-20T08:16:11;8.97;;;6.33;;
5937;SDS011;2994;51.220;4.412;2023-03-20T08:18:37;9.00;;;5.83;;
5937;SDS011;2994;51.220;4.412;2023-03-20T08:21:02;9.50;;;6.17;;
5937;SDS011;2994;51.220;4.412;2023-03-20T08:23:28;10.60;;;5.50;;
5937;SDS011;2994;51.220;4.412;2023-03-20T08:25:54;10.77;;;6.13;;
5937;SDS011;2994;51.220;4.412;2023-03-20T08:28:20;9.27;;;5.70;;
5937;SDS011;2994;51.220;4.412;2023-03-20T08:30:46;8.43;;;6.00;;
5937;SDS011;2994;51.220;4.412;2023-03-20T08:33:13;9.90;;;6.07;;
5937;SDS011;2994;51.220;4.412;2023-03-20T08:35:40;8.53;;;5.57;;
5937;SDS011;2994;51.220;4.412;2023-03-20T08:38:08;11.40;;;5.50;;
5937;SDS011;2994;51.220;4.412;2023-03-20T08:40:36;14.80;;;8.40;;
5937;SDS011;2994;51.220;4.412;2023-03-20T08:43:04;8.03;;;5.73;;
5937;SDS011;2994;51.220;4.412;2023-03-20T08:45:30;14.30;;;6.33;;
5937;SDS011;2994;51.220;4.412;2023-03-20T08:47:55;9.27;;;5.70;;
5937;SDS011;2994;51.220;4.412;2023-03-20T08:50:21;7.17;;;5.70;;
5937;SDS011;2994;51.220;4.412;2023-03-20T08:52:46;11.97;;;6.20;;
5937;SDS011;2994;51.220;4.412;2023-03-20T08:55:12;9.80;;;5.33;;
5937;SDS011;2994;51.220;4.412;2023-03-20T08:57:39;7.20;;;5.70;;
5937;SDS011;2994;51.220;4.412;2023-03-20T09:00:06;8.17;;;5.00;;
5937;SDS011;2994;51.220;4.412;2023-03-20T09:02:32;13.80;;;5.50;;
5937;SDS011;2994;51.220;4.412;2023-03-20T09:04:58;11.33;;;6.20;;
5937;SDS011;2994;51.220;4.412;2023-03-20T09:07:24;8.20;;;4.50;;
5937;SDS011;2994;51.220;4.412;2023-03-20T09:09:49;10.83;;;5.57;;
5937;SDS011;2994;51.220;4.412;2023-03-20T09:12:15;8.80;;;5.30;;
5937;SDS011;2994;51.220;4.412;2023-03-20T09:14:40;7.00;;;6.13;;
5937;SDS011;2994;51.220;4.412;2023-03-20T09:17:06;9.47;;;5.40;;
5937;SDS011;2994;51.220;4.412;2023-03-20T09:19:32;16.27;;;6.57;;
5937;SDS011;2994;51.220;4.412;2023-03-20T09:21:59;10.03;;;5.07;;
5937;SDS011;2994;51.220;4.412;2023-03-20T09:24:25;11.60;;;5.47;;
5937;SDS011;2994;51.220;4.412;2023-03-20T09:26:50;9.03;;;4.70;;
5937;SDS011;2994;51.220;4.412;2023-03-20T09:29:16;10.57;;;5.07;;
5937;SDS011;2994;51.220;4.412;2023-03-20T09:31:42;6.53;;;5.50;;
5937;SDS011;2994;51.220;4.412;2023-03-20T09:34:07;9.30;;;5.63;;
5937;SDS011;2994;51.220;4.412;2023-03-20T09:36:33;8.27;;;5.00;;
5937;SDS011;2994;51.220;4.412;2023-03-20T09:38:59;4.50;;;3.97;;
5937;SDS011;2994;51.220;4.412;2023-03-20T09:41:25;8.73;;;4.43;;
5937;SDS011;2994;51.220;4.412;2023-03-20T09:43:55;10.57;;;4.83;;
5937;SDS011;2994;51.220;4.412;2023-03-20T09:53:52;5.50;;;4.13;;
5937;SDS011;2994;51.220;4.412;2023-03-20T09:56:22;7.00;;;4.27;;
5937;SDS011;2994;51.220;4.412;2023-03-20T09:58:53;7.20;;;4.20;;
5937;SDS011;2994;51.220;4.412;2023-03-20T10:01:47;7.97;;;4.30;;
5937;SDS011;2994;51.220;4.412;2023-03-20T10:04:18;6.73;;;4.20;;
5937;SDS011;2994;51.220;4.412;2023-03-20T10:06:44;11.87;;;5.87;;
5937;SDS011;2994;51.220;4.412;2023-03-20T10:09:15;7.97;;;4.10;;
5937;SDS011;2994;51.220;4.412;2023-03-20T10:20:34;7.57;;;4.60;;
5937;SDS011;2994;51.220;4.412;2023-03-20T10:23:24;12.50;;;5.80;;
5937;SDS011;2994;51.220;4.412;2023-03-20T10:25:55;11.30;;;5.07;;
5937;SDS011;2994;51.220;4.412;2023-03-20T10:28:56;16.93;;;5.53;;
5937;SDS011;2994;51.220;4.412;2023-03-20T10:42:18;10.50;;;5.23;;
5937;SDS011;2994;51.220;4.412;2023-03-20T10:44:50;8.40;;;5.13;;
5937;SDS011;2994;51.220;4.412;2023-03-20T10:47:21;13.57;;;4.87;;
5937;SDS011;2994;51.220;4.412;2023-03-20T10:49:52;12.57;;;6.27;;
5937;SDS011;2994;51.220;4.412;2023-03-20T10:52:25;9.33;;;4.97;;
5937;SDS011;2994;51.220;4.412;2023-03-20T10:55:17;8.03;;;5.00;;
5937;SDS011;2994;51.220;4.412;2023-03-20T10:57:56;8.57;;;5.60;;
5937;SDS011;2994;51.220;4.412;2023-03-20T11:00:29;7.53;;;5.70;;
5937;SDS011;2994;51.220;4.412;2023-03-20T11:02:55;9.73;;;6.70;;
5937;SDS011;2994;51.220;4.412;2023-03-20T11:05:30;7.90;;;5.87;;
5937;SDS011;2994;51.220;4.412;2023-03-20T11:10:32;14.20;;;5.10;;
5937;SDS011;2994;51.220;4.412;2023-03-20T11:13:45;9.50;;;5.40;;
5937;SDS011;2994;51.220;4.412;2023-03-20T11:16:22;8.20;;;4.80;;
5937;SDS011;2994;51.220;4.412;2023-03-20T11:18:48;6.37;;;4.47;;
5937;SDS011;2994;51.220;4.412;2023-03-20T11:21:21;7.80;;;4.60;;
5937;SDS011;2994;51.220;4.412;2023-03-20T11:23:49;6.93;;;5.10;;
5937;SDS011;2994;51.220;4.412;2023-03-20T11:26:16;9.33;;;5.10;;
5937;SDS011;2994;51.220;4.412;2023-03-20T11:28:56;8.47;;;6.60;;
5937;SDS011;2994;51.220;4.412;2023-03-20T11:31:24;8.53;;;5.23;;
5937;SDS011;2994;51.220;4.412;2023-03-20T11:36:29;7.90;;;5.13;;
5937;SDS011;2994;51.220;4.412;2023-03-20T11:39:09;11.40;;;5.17;;
5937;SDS011;2994;51.220;4.412;2023-03-20T11:41:41;12.13;;;5.93;;
5937;SDS011;2994;51.220;4.412;2023-03-20T11:47:21;8.50;;;5.43;;
5937;SDS011;2994;51.220;4.412;2023-03-20T11:49:54;7.97;;;5.40;;
5937;SDS011;2994;51.220;4.412;2023-03-20T11:52:22;6.93;;;5.23;;
5937;SDS011;2994;51.220;4.412;2023-03-20T11:54:52;6.20;;;4.90;;
5937;SDS011;2994;51.220;4.412;2023-03-20T11:57:31;7.30;;;5.00;;
5937;SDS011;2994;51.220;4.412;2023-03-20T12:02:35;9.70;;;5.37;;
5937;SDS011;2994;51.220;4.412;2023-03-20T12:05:18;9.17;;;5.30;;
5937;SDS011;2994;51.220;4.412;2023-03-20T12:07:59;8.63;;;5.53;;
5937;SDS011;2994;51.220;4.412;2023-03-20T12:10:53;10.43;;;4.67;;
5937;SDS011;2994;51.220;4.412;2023-03-20T12:13:24;8.80;;;5.07;;
5937;SDS011;2994;51.220;4.412;2023-03-20T12:15:54;7.97;;;5.17;;
5937;SDS011;2994;51.220;4.412;2023-03-20T12:18:31;8.67;;;4.57;;
5937;SDS011;2994;51.220;4.412;2023-03-20T12:23:57;8.20;;;4.70;;
5937;SDS011;2994;51.220;4.412;2023-03-20T12:28:53;11.00;;;5.77;;
5937;SDS011;2994;51.220;4.412;2023-03-20T12:31:38;8.77;;;5.57;;
5937;SDS011;2994;51.220;4.412;2023-03-20T12:34:23;8.13;;;5.20;;
5937;SDS011;2994;51.220;4.412;2023-03-20T12:36:57;10.13;;;5.60;;
5937;SDS011;2994;51.220;4.412;2023-03-20T12:39:23;7.10;;;4.60;;
5937;SDS011;2994;51.220;4.412;2023-03-20T12:47:32;13.83;;;6.63;;
5937;SDS011;2994;51.220;4.412;2023-03-20T12:58:22;9.33;;;5.77;;
5937;SDS011;2994;51.220;4.412;2023-03-20T13:01:21;7.77;;;5.93;;
5937;SDS011;2994;51.220;4.412;2023-03-20T13:06:52;10.50;;;5.40;;
5937;SDS011;2994;51.220;4.412;2023-03-20T13:09:39;12.53;;;6.23;;
5937;SDS011;2994;51.220;4.412;2023-03-20T13:15:02;8.10;;;6.17;;
5937;SDS011;2994;51.220;4.412;2023-03-20T13:17:51;10.80;;;5.40;;
5937;SDS011;2994;51.220;4.412;2023-03-20T13:20:44;8.60;;;4.40;;
5937;SDS011;2994;51.220;4.412;2023-03-20T13:23:35;7.50;;;5.33;;
5937;SDS011;2994;51.220;4.412;2023-03-20T13:39:44;9.00;;;5.53;;
5937;SDS011;2994;51.220;4.412;2023-03-20T13:42:18;9.07;;;5.30;;
5937;SDS011;2994;51.220;4.412;2023-03-20T13:44:48;11.13;;;5.87;;
5937;SDS011;2994;51.220;4.412;2023-03-20T13:47:17;10.13;;;5.40;;
5937;SDS011;2994;51.220;4.412;2023-03-20T13:52:28;10.53;;;6.37;;
5937;SDS011;2994;51.220;4.412;2023-03-20T14:00:24;12.07;;;7.03;;
5937;SDS011;2994;51.220;4.412;2023-03-20T14:05:53;10.70;;;6.40;;
5937;SDS011;2994;51.220;4.412;2023-03-20T14:11:33;7.77;;;5.70;;
5937;SDS011;2994;51.220;4.412;2023-03-20T14:13:53;11.73;;;7.93;;
5937;SDS011;2994;51.220;4.412;2023-03-20T14:16:20;10.33;;;6.70;;
5937;SDS011;2994;51.220;4.412;2023-03-20T14:18:47;9.53;;;6.63;;
5937;SDS011;2994;51.220;4.412;2023-03-20T14:21:17;9.90;;;7.20;;
5937;SDS011;2994;51.220;4.412;2023-03-20T14:23:49;10.10;;;7.27;;
5937;SDS011;2994;51.220;4.412;2023-03-20T14:29:30;8.77;;;7.80;;
5937;SDS011;2994;51.220;4.412;2023-03-20T14:32:05;10.60;;;6.70;;
5937;SDS011;2994;51.220;4.412;2023-03-20T14:40:33;10.50;;;8.13;;
5937;SDS011;2994;51.220;4.412;2023-03-20T14:48:55;12.27;;;6.80;;
5937;SDS011;2994;51.220;4.412;2023-03-20T14:51:23;11.83;;;7.30;;
5937;SDS011;2994;51.220;4.412;2023-03-20T14:56:49;16.23;;;8.77;;
5937;SDS011;2994;51.220;4.412;2023-03-20T14:59:22;7.70;;;6.90;;
5937;SDS011;2994;51.220;4.412;2023-03-20T15:01:56;11.07;;;7.63;;
5937;SDS011;2994;51.220;4.412;2023-03-20T15:04:27;10.20;;;7.10;;
5937;SDS011;2994;51.220;4.412;2023-03-20T15:07:00;9.67;;;6.50;;
5937;SDS011;2994;51.220;4.412;2023-03-20T15:09:31;17.13;;;7.37;;
5937;SDS011;2994;51.220;4.412;2023-03-20T15:12:00;14.60;;;7.80;;
5937;SDS011;2994;51.220;4.412;2023-03-20T15:14:30;12.53;;;8.00;;
5937;SDS011;2994;51.220;4.412;2023-03-20T15:17:00;12.40;;;7.27;;
5937;SDS011;2994;51.220;4.412;2023-03-20T15:19:28;15.47;;;7.90;;
5937;SDS011;2994;51.220;4.412;2023-03-20T15:21:54;11.73;;;7.60;;
5937;SDS011;2994;51.220;4.412;2023-03-20T15:24:21;12.97;;;8.33;;
5937;SDS011;2994;51.220;4.412;2023-03-20T15:26:50;16.63;;;8.03;;
5937;SDS011;2994;51.220;4.412;2023-03-20T15:29:19;11.97;;;7.53;;
5937;SDS011;2994;51.220;4.412;2023-03-20T15:31:46;10.07;;;7.57;;
5937;SDS011;2994;51.220;4.412;2023-03-20T15:34:19;13.03;;;8.87;;
5937;SDS011;2994;51.220;4.412;2023-03-20T15:36:46;12.90;;;7.13;;
5937;SDS011;2994;51.220;4.412;2023-03-20T15:41:43;9.40;;;6.70;;
5937;SDS011;2994;51.220;4.412;2023-03-20T15:47:03;8.80;;;6.47;;
5937;SDS011;2994;51.220;4.412;2023-03-20T15:49:35;8.50;;;6.70;;
5937;SDS011;2994;51.220;4.412;2023-03-20T15:52:50;11.47;;;7.60;;
5937;SDS011;2994;51.220;4.412;2023-03-20T15:54:54;11.20;;;6.77;;
5937;SDS011;2994;51.220;4.412;2023-03-20T15:57:34;9.50;;;8.03;;
5937;SDS011;2994;51.220;4.412;2023-03-20T16:00:03;12.23;;;7.40;;
5937;SDS011;2994;51.220;4.412;2023-03-20T16:02:31;12.23;;;7.60;;
5937;SDS011;2994;51.220;4.412;2023-03-20T16:04:57;9.20;;;6.70;;
5937;SDS011;2994;51.220;4.412;2023-03-20T16:07:27;8.33;;;5.67;;
5937;SDS011;2994;51.220;4.412;2023-03-20T16:09:57;11.20;;;7.90;;
5937;SDS011;2994;51.220;4.412;2023-03-20T16:12:24;10.93;;;8.23;;
5937;SDS011;2994;51.220;4.412;2023-03-20T16:14:53;12.97;;;8.43;;
5937;SDS011;2994;51.220;4.412;2023-03-20T16:17:20;10.00;;;6.50;;
5937;SDS011;2994;51.220;4.412;2023-03-20T16:19:48;13.23;;;7.30;;
5937;SDS011;2994;51.220;4.412;2023-03-20T16:22:16;11.97;;;8.80;;
5937;SDS011;2994;51.220;4.412;2023-03-20T16:24:47;10.37;;;7.20;;
5937;SDS011;2994;51.220;4.412;2023-03-20T16:27:19;9.20;;;7.10;;
5937;SDS011;2994;51.220;4.412;2023-03-20T16:29:49;10.50;;;9.40;;
5937;SDS011;2994;51.220;4.412;2023-03-20T16:34:53;13.83;;;8.00;;
5937;SDS011;2994;51.220;4.412;2023-03-20T16:37:27;9.50;;;7.83;;
5937;SDS011;2994;51.220;4.412;2023-03-20T16:42:42;11.97;;;7.30;;
5937;SDS011;2994;51.220;4.412;2023-03-20T16:45:27;18.60;;;8.90;;
5937;SDS011;2994;51.220;4.412;2023-03-20T16:48:40;16.07;;;8.07;;
5937;SDS011;2994;51.220;4.412;2023-03-20T16:50:41;7.90;;;7.10;;
5937;SDS011;2994;51.220;4.412;2023-03-20T16:53:17;13.50;;;7.77;;
5937;SDS011;2994;51.220;4.412;2023-03-20T16:55:50;11.60;;;9.00;;
5937;SDS011;2994;51.220;4.412;2023-03-20T16:58:21;11.83;;;7.40;;
5937;SDS011;2994;51.220;4.412;2023-03-20T17:01:09;12.40;;;7.50;;
5937;SDS011;2994;51.220;4.412;2023-03-20T17:08:53;9.40;;;8.00;;
5937;SDS011;2994;51.220;4.412;2023-03-20T17:11:34;17.53;;;8.47;;
5937;SDS011;2994;51.220;4.412;2023-03-20T17:14:00;12.57;;;7.43;;
5937;SDS011;2994;51.220;4.412;2023-03-20T17:16:28;12.03;;;8.50;;
5937;SDS011;2994;51.220;4.412;2023-03-20T17:18:58;10.50;;;8.80;;
5937;SDS011;2994;51.220;4.412;2023-03-20T17:21:25;11.73;;;8.40;;
5937;SDS011;2994;51.220;4.412;2023-03-20T17:23:51;9.40;;;7.93;;
5937;SDS011;2994;51.220;4.412;2023-03-20T17:26:17;15.70;;;9.30;;
5937;SDS011;2994;51.220;4.412;2023-03-20T17:28:42;16.37;;;9.07;;
5937;SDS011;2994;51.220;4.412;2023-03-20T17:31:10;10.17;;;7.70;;
5937;SDS011;2994;51.220;4.412;2023-03-20T17:33:38;11.53;;;7.93;;
5937;SDS011;2994;51.220;4.412;2023-03-20T17:36:04;14.90;;;8.00;;
5937;SDS011;2994;51.220;4.412;2023-03-20T17:38:45;14.73;;;9.97;;
5937;SDS011;2994;51.220;4.412;2023-03-20T17:41:14;11.63;;;8.10;;
5937;SDS011;2994;51.220;4.412;2023-03-20T17:43:42;13.00;;;7.70;;
5937;SDS011;2994;51.220;4.412;2023-03-20T17:46:19;16.43;;;7.90;;
5937;SDS011;2994;51.220;4.412;2023-03-20T17:48:49;9.93;;;6.63;;
5937;SDS011;2994;51.220;4.412;2023-03-20T17:51:19;13.00;;;7.30;;
5937;SDS011;2994;51.220;4.412;2023-03-20T17:53:44;10.57;;;7.00;;
5937;SDS011;2994;51.220;4.412;2023-03-20T17:56:16;9.23;;;6.00;;
5937;SDS011;2994;51.220;4.412;2023-03-20T17:58:41;11.40;;;6.70;;
5937;SDS011;2994;51.220;4.412;2023-03-20T18:01:10;7.50;;;5.53;;
5937;SDS011;2994;51.220;4.412;2023-03-20T18:03:37;16.77;;;6.40;;
5937;SDS011;2994;51.220;4.412;2023-03-20T18:06:03;7.60;;;5.90;;